createdAt,value
2019-03-19T00:02:21.163Z,7.37
2019-03-19T00:05:24.200Z,15.88
2019-03-19T00:08:27.255Z,13.00
2019-03-19T00:11:30.282Z,11.55
2019-03-19T00:14:34.090Z,12.25
2019-03-19T00:17:37.128Z,13.48
2019-03-19T00:20:40.171Z,11.97
2019-03-19T00:23:43.207Z,4.87
2019-03-19T00:26:46.248Z,18.30
2019-03-19T00:29:49.039Z,14.63
2019-03-19T00:32:51.820Z,10.72
2019-03-19T00:35:54.601Z,13.20
2019-03-19T00:38:57.396Z,10.48
2019-03-19T00:42:00.167Z,6.37
2019-03-19T00:45:03.208Z,3.42
2019-03-19T00:48:05.998Z,10.85
2019-03-19T00:51:08.781Z,12.40
2019-03-19T00:54:11.566Z,11.73
2019-03-19T00:57:14.608Z,12.55
2019-03-19T01:00:17.397Z,15.70
2019-03-19T01:03:20.170Z,13.93
2019-03-19T01:06:22.951Z,11.10
2019-03-19T01:09:26.248Z,12.40
2019-03-19T01:12:29.033Z,13.35
2019-03-19T01:15:31.815Z,9.05
2019-03-19T01:18:28.998Z,11.65
2019-03-19T01:21:32.009Z,10.13
2019-03-19T01:24:34.792Z,14.20
2019-03-19T01:27:37.831Z,10.90
2019-03-19T01:30:40.616Z,13.35
2019-03-19T01:33:44.422Z,5.92
2019-03-19T01:36:47.212Z,11.43
2019-03-19T01:39:49.991Z,9.85
2019-03-19T01:42:53.033Z,12.78
2019-03-19T01:45:55.816Z,12.35
2019-03-19T01:48:58.601Z,10.00
2019-03-19T01:52:01.645Z,12.13
2019-03-19T01:55:04.426Z,21.87
2019-03-19T01:58:07.986Z,9.05
2019-03-19T02:01:11.015Z,8.93
2019-03-19T02:04:13.801Z,11.60
2019-03-19T02:07:16.841Z,13.38
2019-03-19T02:10:19.879Z,11.75
2019-03-19T02:13:22.920Z,13.25
2019-03-19T02:16:25.446Z,12.73
2019-03-19T02:19:27.977Z,14.25
2019-03-19T02:22:31.015Z,5.33
2019-03-19T02:25:34.057Z,14.15
2019-03-19T02:28:36.840Z,12.60
2019-03-19T02:31:40.141Z,12.37
2019-03-19T02:34:43.432Z,9.68
2019-03-19T02:37:46.218Z,12.03
2019-03-19T02:40:49.000Z,11.30
2019-03-19T02:43:51.791Z,11.85
2019-03-19T02:46:54.825Z,8.03
2019-03-19T02:49:57.867Z,6.97
2019-03-19T02:53:00.649Z,10.53
2019-03-19T02:56:03.688Z,12.07
2019-03-19T02:59:00.905Z,5.33
2019-03-19T03:02:03.882Z,16.62
2019-03-19T03:05:06.668Z,7.83
2019-03-19T03:08:09.454Z,5.17
2019-03-19T03:11:08.619Z,4.15
2019-03-19T03:14:11.689Z,12.70
2019-03-19T03:17:14.473Z,6.28
2019-03-19T03:20:17.527Z,15.40
2019-03-19T03:23:20.812Z,13.38
2019-03-19T03:26:23.873Z,13.03
2019-03-19T03:29:26.894Z,12.80
2019-03-19T03:32:29.944Z,13.03
2019-03-19T03:35:32.967Z,4.03
2019-03-19T03:38:35.753Z,12.65
2019-03-19T03:41:39.049Z,6.30
2019-03-19T03:44:41.831Z,3.42
2019-03-19T03:47:44.618Z,6.78
2019-03-19T03:50:50.215Z,5.05
2019-03-19T03:53:53.005Z,5.53
2019-03-19T03:57:01.761Z,5.80
2019-03-19T03:59:56.008Z,10.65
2019-03-19T04:03:02.639Z,14.15
2019-03-19T04:06:05.942Z,11.48
2019-03-19T04:09:09.480Z,9.35
2019-03-19T04:12:11.752Z,8.70
2019-03-19T04:15:10.868Z,9.55
2019-03-19T04:18:13.735Z,16.07
2019-03-19T04:21:17.547Z,4.08
2019-03-19T04:24:20.838Z,12.95
2019-03-19T04:27:23.882Z,13.85
2019-03-19T04:30:26.919Z,9.08
2019-03-19T04:33:30.983Z,6.42
2019-03-19T04:36:34.281Z,9.13
2019-03-19T04:39:37.323Z,13.55
2019-03-19T04:42:40.616Z,12.40
2019-03-19T04:45:43.663Z,14.28
2019-03-19T04:48:46.441Z,6.35
2019-03-19T04:51:49.480Z,11.12
2019-03-19T04:54:53.799Z,14.87
2019-03-19T04:57:54.158Z,11.60
2019-03-19T05:00:57.063Z,5.00
2019-03-19T05:04:01.131Z,15.60
2019-03-19T05:07:03.912Z,7.65
2019-03-19T05:10:06.697Z,13.22
2019-03-19T05:13:05.898Z,11.95
2019-03-19T05:16:08.936Z,9.30
2019-03-19T05:19:18.636Z,15.80
2019-03-19T05:22:22.185Z,11.48
2019-03-19T05:25:24.970Z,12.53
2019-03-19T05:28:27.752Z,7.60
2019-03-19T05:31:30.791Z,11.30
2019-03-19T05:34:33.831Z,6.72
2019-03-19T05:37:36.615Z,4.65
2019-03-19T05:40:39.402Z,11.20
2019-03-19T05:43:42.440Z,5.37
2019-03-19T05:46:45.229Z,4.62
2019-03-19T05:49:48.264Z,3.33
2019-03-19T05:52:52.332Z,12.00
2019-03-19T05:55:55.372Z,10.93
2019-03-19T05:58:58.153Z,14.28
2019-03-19T06:02:00.941Z,9.28
2019-03-19T06:05:04.005Z,9.48
2019-03-19T06:08:07.783Z,11.18
2019-03-19T06:11:10.827Z,14.33
2019-03-19T06:14:14.380Z,11.30
2019-03-19T06:17:17.676Z,10.88
2019-03-19T06:20:16.933Z,9.30
2019-03-19T06:23:20.169Z,14.70
2019-03-19T06:26:23.210Z,18.53
2019-03-19T06:29:26.506Z,12.70
2019-03-19T06:32:29.545Z,11.55
2019-03-19T06:35:32.584Z,7.65
2019-03-19T06:38:35.370Z,4.12
2019-03-19T06:41:38.151Z,2.98
2019-03-19T06:44:42.988Z,4.55
2019-03-19T06:47:53.231Z,4.17
2019-03-19T06:50:56.233Z,4.47
2019-03-19T06:53:59.016Z,6.05
2019-03-19T06:57:02.056Z,3.35
2019-03-19T07:00:05.096Z,11.00
2019-03-19T07:03:07.879Z,16.60
2019-03-19T07:06:10.920Z,11.05
2019-03-19T07:09:13.958Z,7.22
2019-03-19T07:12:17.257Z,17.87
2019-03-19T07:15:20.301Z,13.93
2019-03-19T07:18:23.849Z,7.37
2019-03-19T07:21:26.637Z,26.75
2019-03-19T07:24:29.672Z,15.78
2019-03-19T07:27:32.716Z,14.65
2019-03-19T07:30:36.007Z,8.25
2019-03-19T07:33:39.047Z,12.23
2019-03-19T07:36:42.345Z,13.60
2019-03-19T07:39:45.128Z,14.63
2019-03-19T07:42:48.180Z,14.13
2019-03-19T07:45:51.465Z,10.88
2019-03-19T07:48:54.501Z,8.68
2019-03-19T07:51:57.543Z,6.87
2019-03-19T07:55:00.329Z,14.10
2019-03-19T07:58:03.116Z,5.25
2019-03-19T08:01:05.896Z,6.55
2019-03-19T08:04:08.935Z,6.90
2019-03-19T08:07:12.237Z,9.10
2019-03-19T08:10:15.017Z,8.50
2019-03-19T08:13:17.799Z,7.58
2019-03-19T08:16:27.447Z,12.15
2019-03-19T08:19:24.135Z,9.63
2019-03-19T08:22:26.923Z,6.90
2019-03-19T08:25:32.778Z,8.55
2019-03-19T08:28:35.819Z,9.05
2019-03-19T08:31:39.112Z,13.22
2019-03-19T08:34:41.898Z,12.30
2019-03-19T08:37:44.937Z,10.28
2019-03-19T08:40:47.976Z,16.27
2019-03-19T08:43:52.575Z,12.33
2019-03-19T08:46:53.801Z,12.05
2019-03-19T08:49:56.840Z,11.95
2019-03-19T08:52:56.139Z,5.75
2019-03-19T08:56:01.067Z,13.83
2019-03-19T08:59:09.550Z,11.68
2019-03-19T09:02:12.583Z,15.10
2019-03-19T09:05:15.117Z,21.12
2019-03-19T09:09:40.074Z,13.40
2019-03-19T09:12:42.858Z,9.33
2019-03-19T09:15:45.639Z,6.17
2019-03-19T09:18:48.423Z,5.42
2019-03-19T09:21:51.207Z,12.75
2019-03-19T09:24:58.601Z,10.15
2019-03-19T09:28:01.895Z,9.50
2019-03-19T09:31:06.985Z,8.53
2019-03-19T09:34:09.767Z,7.67
2019-03-19T09:37:12.551Z,6.92
2019-03-19T09:40:15.591Z,5.28
2019-03-19T09:43:18.378Z,3.90
2019-03-19T09:46:21.158Z,3.47
2019-03-19T09:49:21.171Z,7.62
2019-03-19T09:52:33.642Z,5.70
2019-03-19T09:55:46.663Z,5.40
2019-03-19T09:58:59.688Z,6.33
2019-03-19T10:02:12.455Z,6.60
2019-03-19T10:05:25.480Z,5.85
2019-03-19T10:08:38.776Z,2.08
2019-03-19T10:11:52.041Z,6.95
2019-03-19T10:15:05.067Z,4.20
2019-03-19T10:18:17.835Z,4.55
2019-03-19T10:21:30.855Z,6.08
2019-03-19T10:24:38.058Z,5.40
2019-03-19T10:27:51.276Z,2.12
2019-03-19T10:31:04.039Z,4.90
2019-03-19T10:34:17.320Z,9.23
2019-03-19T10:37:30.345Z,2.50
2019-03-19T10:40:43.371Z,3.47
2019-03-19T10:43:56.394Z,4.45
2019-03-19T10:47:09.157Z,6.28
2019-03-19T10:50:21.926Z,6.15
2019-03-19T10:53:37.513Z,2.92
2019-03-19T10:56:50.285Z,5.47
2019-03-19T11:00:04.327Z,1.80
2019-03-19T11:03:17.350Z,2.17
2019-03-19T11:06:30.377Z,1.60
2019-03-19T11:09:43.408Z,5.40
2019-03-19T11:12:56.428Z,4.20
2019-03-19T11:16:09.448Z,5.97
2019-03-19T11:19:22.732Z,4.58
2019-03-19T11:22:35.760Z,1.82
2019-03-19T11:25:54.556Z,1.15
2019-03-19T11:29:01.543Z,1.57
2019-03-19T11:32:14.566Z,2.37
2019-03-19T11:35:23.720Z,3.50
2019-03-19T11:38:36.519Z,4.83
2019-03-19T11:41:49.542Z,1.15
2019-03-19T11:45:02.569Z,0.90
2019-03-19T11:48:15.336Z,2.15
2019-03-19T11:51:28.362Z,2.75
2019-03-19T11:54:41.386Z,1.87
2019-03-19T11:57:54.408Z,1.10
2019-03-19T12:01:07.176Z,5.42
2019-03-19T12:04:19.944Z,1.60
2019-03-19T12:07:33.221Z,2.65
2019-03-19T12:10:46.246Z,1.82
2019-03-19T12:13:59.271Z,1.20
2019-03-19T12:17:12.041Z,0.68
2019-03-19T12:20:25.325Z,5.25
2019-03-19T12:23:38.602Z,2.47
2019-03-19T12:26:51.380Z,10.28
2019-03-19T12:30:07.650Z,1.27
2019-03-19T12:33:17.414Z,3.75
2019-03-19T12:36:30.695Z,1.82
2019-03-19T12:39:43.464Z,1.00
2019-03-19T12:42:56.744Z,2.05
2019-03-19T12:46:09.512Z,1.55
2019-03-19T12:49:22.535Z,2.47
2019-03-19T12:52:35.813Z,2.30
2019-03-19T12:55:48.584Z,1.42
2019-03-19T12:59:01.612Z,5.00
2019-03-19T13:02:14.886Z,2.47
2019-03-19T13:05:24.052Z,1.32
2019-03-19T13:08:37.097Z,2.50
2019-03-19T13:11:50.120Z,1.82
2019-03-19T13:15:02.898Z,1.57
2019-03-19T13:18:15.913Z,4.05
2019-03-19T13:21:28.934Z,1.95
2019-03-19T13:24:41.715Z,2.45
2019-03-19T13:27:56.010Z,1.92
2019-03-19T13:31:09.286Z,2.47
2019-03-19T13:34:22.314Z,2.95
2019-03-19T13:37:35.337Z,1.32
2019-03-19T13:40:48.361Z,1.55
2019-03-19T13:44:01.129Z,5.10
2019-03-19T13:47:14.411Z,3.40
2019-03-19T13:50:27.177Z,2.12
2019-03-19T13:53:39.943Z,1.50
2019-03-19T13:56:53.226Z,2.12
2019-03-19T14:00:05.997Z,2.12
2019-03-19T14:03:19.019Z,1.70
2019-03-19T14:06:32.294Z,1.12
2019-03-19T14:09:45.320Z,0.93
2019-03-19T14:12:58.346Z,4.42
2019-03-19T14:16:11.367Z,3.62
2019-03-19T14:19:24.392Z,3.55
2019-03-19T14:22:38.184Z,1.77
2019-03-19T14:25:51.208Z,1.40
2019-03-19T14:29:03.980Z,1.45
2019-03-19T14:32:14.292Z,1.17
2019-03-19T14:35:36.812Z,1.98
2019-03-19T14:38:47.163Z,0.82
2019-03-19T14:41:53.000Z,1.75
2019-03-19T14:45:05.769Z,2.58
2019-03-19T14:48:18.795Z,0.82
2019-03-19T14:51:31.817Z,4.28
2019-03-19T14:54:44.846Z,3.12
2019-03-19T14:57:57.867Z,2.17
2019-03-19T15:01:19.195Z,2.77
2019-03-19T15:04:24.680Z,2.70
2019-03-19T15:07:37.455Z,1.85
2019-03-19T15:10:50.984Z,3.45
2019-03-19T15:14:04.268Z,4.72
2019-03-19T15:17:13.576Z,1.77
2019-03-19T15:20:26.726Z,0.88
2019-03-19T15:23:39.751Z,2.50
2019-03-19T15:27:00.714Z,1.02
2019-03-19T15:30:13.738Z,1.50
2019-03-19T15:33:26.761Z,1.10
2019-03-19T15:36:36.208Z,2.08
2019-03-19T15:39:49.234Z,0.60
2019-03-19T15:43:02.268Z,3.15
2019-03-19T15:46:15.527Z,2.98
2019-03-19T15:49:37.881Z,0.70
2019-03-19T15:52:41.576Z,3.27
2019-03-19T15:55:54.347Z,2.52
2019-03-19T15:59:07.111Z,1.72
2019-03-19T16:02:20.134Z,2.83
2019-03-19T16:05:33.421Z,1.10
2019-03-19T16:08:46.448Z,1.22
2019-03-19T16:12:00.487Z,1.98
2019-03-19T16:15:13.514Z,1.40
2019-03-19T16:18:26.279Z,2.60
2019-03-19T16:21:40.329Z,3.35
2019-03-19T16:24:54.632Z,2.00
2019-03-19T16:28:07.397Z,2.27
2019-03-19T16:31:27.336Z,2.30
2019-03-19T16:34:40.102Z,1.10
2019-03-19T16:37:53.387Z,1.10
2019-03-19T16:41:06.151Z,1.05
2019-03-19T16:44:19.943Z,3.27
2019-03-19T16:47:33.737Z,2.35
2019-03-19T16:50:47.021Z,1.27
2019-03-19T16:54:00.040Z,2.87
2019-03-19T16:57:13.067Z,7.97
2019-03-19T17:00:26.351Z,5.72
2019-03-19T17:03:35.567Z,2.15
2019-03-19T17:06:48.553Z,2.52
2019-03-19T17:10:01.062Z,1.30
2019-03-19T17:13:15.113Z,3.70
2019-03-19T17:16:28.143Z,2.45
2019-03-19T17:19:41.938Z,2.95
2019-03-19T17:22:57.136Z,1.05
2019-03-19T17:26:07.973Z,3.70
2019-03-19T17:29:20.999Z,1.55
2019-03-19T17:32:33.771Z,1.07
2019-03-19T17:35:46.536Z,1.40
2019-03-19T17:38:59.559Z,1.10
2019-03-19T17:42:12.333Z,1.70
2019-03-19T17:45:21.318Z,2.92
2019-03-19T17:48:34.283Z,3.22
2019-03-19T17:51:48.598Z,3.02
2019-03-19T17:55:01.351Z,6.35
2019-03-19T17:58:14.375Z,7.00
2019-03-19T18:01:27.142Z,2.45
2019-03-19T18:04:40.165Z,3.90
2019-03-19T18:07:52.934Z,1.12
2019-03-19T18:11:07.238Z,4.20
2019-03-19T18:14:20.008Z,2.72
2019-03-19T18:17:34.311Z,2.40
2019-03-19T18:20:47.414Z,3.98
2019-03-19T18:24:00.111Z,3.65
2019-03-19T18:27:13.128Z,2.98
2019-03-19T18:30:26.150Z,5.83
2019-03-19T18:33:40.201Z,3.33
2019-03-19T18:36:53.226Z,2.75
2019-03-19T18:40:05.990Z,2.60
2019-03-19T18:43:27.469Z,4.22
2019-03-19T18:46:40.488Z,4.45
2019-03-19T18:49:53.767Z,4.25
2019-03-19T18:53:07.050Z,5.60
2019-03-19T18:56:20.328Z,3.90
2019-03-19T18:59:33.098Z,4.85
2019-03-19T19:02:50.214Z,4.47
2019-03-19T19:05:58.885Z,3.55
2019-03-19T19:09:11.911Z,3.62
2019-03-19T19:12:25.447Z,7.65
2019-03-19T19:15:39.495Z,7.72
2019-03-19T19:18:52.263Z,6.47
2019-03-19T19:22:06.054Z,8.33
2019-03-19T19:25:19.079Z,6.97
2019-03-19T19:28:31.846Z,4.15
2019-03-19T19:31:45.127Z,4.37
2019-03-19T19:34:58.406Z,6.08
2019-03-19T19:38:11.174Z,3.22
2019-03-19T19:41:25.223Z,11.57
2019-03-19T19:44:41.064Z,7.37
2019-03-19T19:47:50.244Z,14.00
2019-03-19T19:51:03.528Z,7.92
2019-03-19T19:54:16.553Z,8.78
2019-03-19T19:57:29.322Z,11.25
2019-03-19T20:00:42.342Z,9.68
2019-03-19T20:03:55.371Z,10.72
2019-03-19T20:07:09.158Z,8.75
2019-03-19T20:10:22.185Z,9.68
2019-03-19T20:13:35.219Z,14.98
2019-03-19T20:16:48.491Z,5.42
2019-03-19T20:20:01.516Z,4.90
2019-03-19T20:23:14.795Z,6.03
2019-03-19T20:26:27.817Z,15.85
2019-03-19T20:29:40.839Z,6.53
2019-03-19T20:32:53.611Z,13.15
2019-03-19T20:36:07.658Z,8.85
2019-03-19T20:39:23.495Z,10.48
2019-03-19T20:42:36.525Z,15.58
2019-03-19T20:45:49.290Z,9.93
2019-03-19T20:49:02.313Z,12.40
2019-03-19T20:52:15.338Z,10.38
2019-03-19T20:55:28.361Z,10.32
2019-03-19T20:58:43.738Z,9.08
2019-03-19T21:01:54.925Z,13.20
2019-03-19T21:05:07.688Z,8.08
2019-03-19T21:08:20.715Z,13.83
2019-03-19T21:11:34.503Z,8.40
2019-03-19T21:14:47.279Z,10.38
2019-03-19T21:18:00.550Z,5.58
2019-03-19T21:21:13.319Z,10.65
2019-03-19T21:24:26.356Z,5.53
2019-03-19T21:27:39.367Z,8.90
2019-03-19T21:30:54.346Z,13.83
2019-03-19T21:34:05.167Z,5.75
2019-03-19T21:37:18.183Z,12.53
2019-03-19T21:40:30.954Z,23.50
2019-03-19T21:43:43.803Z,14.03
2019-03-19T21:46:57.770Z,12.03
2019-03-19T21:50:10.791Z,8.05
2019-03-19T21:53:23.820Z,16.30
2019-03-19T21:56:36.583Z,7.80
2019-03-19T21:59:49.349Z,4.37
2019-03-19T22:03:02.118Z,5.00
2019-03-19T22:06:16.490Z,4.47
2019-03-19T22:09:28.431Z,8.30
2019-03-19T22:12:41.705Z,6.60
2019-03-19T22:15:55.494Z,5.67
2019-03-19T22:19:08.519Z,13.28
2019-03-19T22:22:21.799Z,14.20
2019-03-19T22:25:31.212Z,10.72
2019-03-19T22:28:44.267Z,19.37
2019-03-19T22:31:57.036Z,13.58
2019-03-19T22:35:10.312Z,14.10
2019-03-19T22:38:23.086Z,13.90
2019-03-19T22:41:35.849Z,16.05
2019-03-19T22:44:49.128Z,18.50
2019-03-19T22:48:01.899Z,18.42
2019-03-19T22:51:14.924Z,20.15
2019-03-19T22:54:27.948Z,19.70
2019-03-19T22:57:40.718Z,17.35
2019-03-19T23:00:53.993Z,17.20
2019-03-19T23:04:06.761Z,19.60
2019-03-19T23:07:19.792Z,15.80
2019-03-19T23:10:33.064Z,17.55
2019-03-19T23:13:46.090Z,15.60
2019-03-19T23:16:59.112Z,10.55
2019-03-19T23:20:12.144Z,7.58
2019-03-19T23:23:24.905Z,16.50
2019-03-19T23:26:37.927Z,17.30
2019-03-19T23:29:50.704Z,13.85
2019-03-19T23:33:03.467Z,15.08
2019-03-19T23:36:17.512Z,13.38
2019-03-19T23:39:30.282Z,17.60
2019-03-19T23:42:43.048Z,16.15
2019-03-19T23:45:56.071Z,13.98
2019-03-19T23:49:09.096Z,12.23
2019-03-19T23:52:21.864Z,8.03
2019-03-19T23:55:35.143Z,15.40
2019-03-19T23:58:47.912Z,15.60
